< < Back
Terminal Aerodrome Forecast


Current Version              Previous Versions:   1  2  3  4  5  6  7  8  9  

Terminal Aerodrome Forecast

650
FTUS44 KBMX 242300
TAFTCL
TAF
KTCL 242323Z 2500/2524 24004KT P6SM SKC
     FM250900 18002KT P6SM SCT015
     FM251500 20007KT P6SM SCT250
     FM251800 21010G18KT P6SM SCT040 BKN120=

Latest METAR

376
SAUS70 KWBC 251000 RRA
MTRTCL
METAR KTCL 250953Z AUTO 00000KT 10SM CLR M01/M03 A2997 RMK AO2 SLP150
T10061028


USA.gov is the U.S. government's official web portal to all federal, state and local government web resources and services.